createdAt,value
2023-02-14T00:01:27.158Z,103417.47
2023-02-14T00:03:49.428Z,103417.31
2023-02-14T00:06:14.507Z,103427.81
2023-02-14T00:08:36.804Z,103423.28
2023-02-14T00:10:58.543Z,103423.13
2023-02-14T00:13:20.306Z,103425.47
2023-02-14T00:15:41.889Z,103412.50
2023-02-14T00:18:03.614Z,103424.06
2023-02-14T00:20:28.033Z,103418.72
2023-02-14T00:22:50.733Z,103409.28
2023-02-14T00:25:13.244Z,103417.06
2023-02-14T00:27:34.941Z,103412.69
2023-02-14T00:30:01.913Z,103411.84
2023-02-14T00:32:23.916Z,103406.41
2023-02-14T00:34:48.343Z,103395.25
2023-02-14T00:37:09.985Z,103401.56
2023-02-14T00:39:31.587Z,103401.56
2023-02-14T00:41:53.468Z,103403.44
2023-02-14T00:44:15.216Z,103404.50
2023-02-14T00:46:37.477Z,103402.59
2023-02-14T00:48:59.261Z,103404.50
2023-02-14T00:51:21.962Z,103400.97
2023-02-14T00:53:47.158Z,103401.78
2023-02-14T00:56:08.766Z,103391.94
2023-02-14T00:58:31.376Z,103404.97
2023-02-14T01:00:53.096Z,103408.72
2023-02-14T01:03:15.245Z,103413.34
2023-02-14T01:05:36.898Z,103408.97
2023-02-14T01:07:58.893Z,103415.72
2023-02-14T01:10:20.476Z,103410.47
2023-02-14T01:12:42.081Z,103410.47
2023-02-14T01:15:04.583Z,103409.63
2023-02-14T01:17:26.158Z,103404.41
2023-02-14T01:19:47.819Z,103414.69
2023-02-14T01:22:10.216Z,103404.03
2023-02-14T01:24:31.841Z,103401.50
2023-02-14T01:26:55.381Z,103405.06
2023-02-14T01:29:17.016Z,103407.56
2023-02-14T01:31:38.963Z,103405.69
2023-02-14T01:34:01.288Z,103409.47
2023-02-14T01:36:33.130Z,103409.91
2023-02-14T01:38:59.314Z,103415.44
2023-02-14T01:41:22.128Z,103413.81
2023-02-14T01:43:54.257Z,103407.56
2023-02-14T01:46:15.932Z,103417.69
2023-02-14T01:48:37.544Z,103412.06
2023-02-14T01:50:59.954Z,103411.88
2023-02-14T01:53:28.671Z,103412.31
2023-02-14T01:56:04.552Z,103410.25
2023-02-14T01:58:31.896Z,103406.31
2023-02-14T02:01:00.136Z,103400.25
2023-02-14T02:03:27.069Z,103407.59
2023-02-14T02:05:57.515Z,103397.28
2023-02-14T02:08:20.274Z,103407.97
2023-02-14T02:10:41.882Z,103397.91
2023-02-14T02:13:08.206Z,103399.34
2023-02-14T02:15:42.243Z,103396.41
2023-02-14T02:18:23.019Z,103388.47
2023-02-14T02:21:34.836Z,103384.28
2023-02-14T02:24:12.435Z,103383.06
2023-02-14T02:27:16.439Z,103386.63
2023-02-14T02:30:15.524Z,103388.06
2023-02-14T02:33:01.794Z,103380.72
2023-02-14T02:35:47.308Z,103382.19
2023-02-14T02:38:39.898Z,103381.16
2023-02-14T02:41:33.239Z,103373.81
2023-02-14T02:43:54.905Z,103380.06
2023-02-14T02:46:48.075Z,103374.63
2023-02-14T02:50:22.194Z,103371.28
2023-02-14T02:53:08.196Z,103378.00
2023-02-14T02:56:17.190Z,103373.00
2023-02-14T02:58:58.503Z,103377.22
2023-02-14T03:01:31.870Z,103372.22
2023-02-14T03:04:20.194Z,103379.97
2023-02-14T03:06:45.337Z,103383.16
2023-02-14T03:09:19.050Z,103381.50
2023-02-14T03:11:53.199Z,103384.22
2023-02-14T03:14:26.347Z,103388.59
2023-02-14T03:17:34.486Z,103390.28
2023-02-14T03:20:34.147Z,103388.78
2023-02-14T03:23:08.801Z,103387.34
2023-02-14T03:26:00.038Z,103392.19
2023-02-14T03:28:42.633Z,103391.13
2023-02-14T03:31:38.670Z,103393.03
2023-02-14T03:34:17.193Z,103389.69
2023-02-14T03:37:10.935Z,103391.59
2023-02-14T03:39:59.568Z,103385.50
2023-02-14T03:42:36.775Z,103383.41
2023-02-14T03:45:04.193Z,103381.72
2023-02-14T03:47:34.213Z,103379.00
2023-02-14T03:50:06.155Z,103375.69
2023-02-14T03:52:33.461Z,103371.47
2023-02-14T03:54:59.537Z,103370.91
2023-02-14T03:57:30.481Z,103377.00
2023-02-14T03:59:55.263Z,103376.81
2023-02-14T04:02:44.863Z,103373.06
2023-02-14T04:05:17.403Z,103364.31
2023-02-14T04:07:57.973Z,103371.22
2023-02-14T04:10:21.443Z,103381.50
2023-02-14T04:12:43.515Z,103375.44
2023-02-14T04:15:06.369Z,103376.50
2023-02-14T04:17:46.736Z,103379.22
2023-02-14T04:20:08.793Z,103381.09
2023-02-14T04:22:30.411Z,103380.88
2023-02-14T04:24:51.989Z,103385.03
2023-02-14T04:27:14.226Z,103386.72
2023-02-14T04:29:48.231Z,103383.78
2023-02-14T04:32:18.267Z,103386.28
2023-02-14T04:34:39.971Z,103384.41
2023-02-14T04:37:01.888Z,103385.47
2023-02-14T04:39:23.543Z,103384.41
2023-02-14T04:41:45.137Z,103378.97
2023-02-14T04:44:06.694Z,103380.41
2023-02-14T04:46:28.359Z,103383.31
2023-02-14T04:48:50.019Z,103381.22
2023-02-14T04:51:11.642Z,103373.66
2023-02-14T04:53:33.215Z,103366.34
2023-02-14T04:55:54.821Z,103366.34
2023-02-14T04:58:17.576Z,103369.06
2023-02-14T05:00:39.253Z,103362.16
2023-02-14T05:03:00.882Z,103358.81
2023-02-14T05:05:22.452Z,103357.38
2023-02-14T05:07:47.626Z,103353.19
2023-02-14T05:10:10.014Z,103353.44
2023-02-14T05:12:32.519Z,103350.72
2023-02-14T05:14:54.280Z,103352.59
2023-02-14T05:17:15.918Z,103345.28
2023-02-14T05:19:37.601Z,103342.31
2023-02-14T05:21:59.255Z,103354.66
2023-02-14T05:24:20.936Z,103345.66
2023-02-14T05:26:42.618Z,103347.34
2023-02-14T05:29:04.513Z,103351.09
2023-02-14T05:31:26.242Z,103350.06
2023-02-14T05:33:47.994Z,103345.28
2023-02-14T05:36:10.834Z,103348.41
2023-02-14T05:38:33.849Z,103345.09
2023-02-14T05:40:55.526Z,103352.84
2023-02-14T05:43:17.123Z,103349.72
2023-02-14T05:45:38.760Z,103345.75
2023-02-14T05:48:01.495Z,103354.34
2023-02-14T05:50:23.161Z,103350.38
2023-02-14T05:52:48.704Z,103355.19
2023-02-14T05:55:10.683Z,103354.81
2023-02-14T05:57:32.633Z,103350.41
2023-02-14T05:59:54.296Z,103352.72
2023-02-14T06:02:16.061Z,103353.75
2023-02-14T06:04:37.714Z,103354.44
2023-02-14T06:06:59.905Z,103354.22
2023-02-14T06:09:22.929Z,103356.53
2023-02-14T06:11:44.522Z,103359.91
2023-02-14T06:14:06.166Z,103362.22
2023-02-14T06:16:27.881Z,103362.63
2023-02-14T06:18:49.600Z,103364.13
2023-02-14T06:21:11.308Z,103362.66
2023-02-14T06:23:32.939Z,103366.63
2023-02-14T06:25:54.604Z,103355.13
2023-02-14T06:28:16.257Z,103361.59
2023-02-14T06:30:37.974Z,103361.84
2023-02-14T06:32:59.720Z,103359.31
2023-02-14T06:35:22.262Z,103363.50
2023-02-14T06:37:45.324Z,103369.56
2023-02-14T06:40:09.894Z,103358.69
2023-02-14T06:42:31.542Z,103366.41
2023-02-14T06:44:53.337Z,103367.22
2023-02-14T06:47:15.553Z,103369.56
2023-02-14T06:49:37.234Z,103370.19
2023-02-14T06:51:58.815Z,103363.47
2023-02-14T06:54:20.469Z,103369.75
2023-02-14T06:56:42.133Z,103372.03
2023-02-14T06:59:03.768Z,103376.41
2023-02-14T07:01:25.426Z,103377.47
2023-02-14T07:03:47.022Z,103374.75
2023-02-14T07:06:08.639Z,103374.75
2023-02-14T07:08:30.403Z,103378.09
2023-02-14T07:10:59.477Z,103379.13
2023-02-14T07:13:21.288Z,103377.25
2023-02-14T07:15:42.946Z,103381.44
2023-02-14T07:18:04.679Z,103376.00
2023-02-14T07:20:26.583Z,103386.44
2023-02-14T07:22:48.262Z,103385.38
2023-02-14T07:25:10.909Z,103390.63
2023-02-14T07:27:33.221Z,103381.84
2023-02-14T07:29:54.871Z,103385.81
2023-02-14T07:32:16.880Z,103393.91
2023-02-14T07:34:38.575Z,103385.13
2023-02-14T07:37:01.649Z,103390.97
2023-02-14T07:39:23.235Z,103394.09
2023-02-14T07:41:44.836Z,103387.19
2023-02-14T07:44:06.498Z,103389.25
2023-02-14T07:46:28.399Z,103390.47
2023-02-14T07:48:51.898Z,103385.03
2023-02-14T07:51:13.488Z,103388.56
2023-02-14T07:53:35.887Z,103392.06
2023-02-14T07:55:57.564Z,103390.97
2023-02-14T07:58:20.459Z,103389.69
2023-02-14T08:00:42.387Z,103388.38
2023-02-14T08:03:03.982Z,103392.28
2023-02-14T08:05:25.661Z,103395.16
2023-02-14T08:07:47.636Z,103390.19
2023-02-14T08:10:11.387Z,103385.09
2023-02-14T08:12:52.918Z,103383.56
2023-02-14T08:15:33.145Z,103381.16
2023-02-14T08:17:57.030Z,103374.97
2023-02-14T08:20:18.813Z,103377.81
2023-02-14T08:22:40.459Z,103379.53
2023-02-14T08:25:02.060Z,103372.50
2023-02-14T08:27:23.668Z,103374.03
2023-02-14T08:29:45.323Z,103363.38
2023-02-14T08:32:07.071Z,103372.72
2023-02-14T08:34:28.790Z,103373.47
2023-02-14T08:36:52.100Z,103370.41
2023-02-14T08:39:13.729Z,103372.81
2023-02-14T08:41:36.081Z,103370.59
2023-02-14T08:43:59.824Z,103362.69
2023-02-14T08:46:21.589Z,103362.34
2023-02-14T08:48:44.346Z,103361.78
2023-02-14T08:51:12.935Z,103362.06
2023-02-14T08:53:35.002Z,103380.38
2023-02-14T08:55:56.712Z,103368.84
2023-02-14T08:58:18.498Z,103363.63
2023-02-14T09:00:40.313Z,103369.97
2023-02-14T09:03:02.030Z,103365.56
2023-02-14T09:05:23.912Z,103367.94
2023-02-14T09:07:45.534Z,103364.38
2023-02-14T09:10:08.144Z,103353.69
2023-02-14T09:12:30.649Z,103355.81
2023-02-14T09:14:52.435Z,103356.88
2023-02-14T09:17:15.361Z,103353.25
2023-02-14T09:19:38.364Z,103356.19
2023-02-14T09:22:00.424Z,103355.34
2023-02-14T09:24:22.168Z,103349.81
2023-02-14T09:26:43.825Z,103353.56
2023-02-14T09:29:05.444Z,103351.59
2023-02-14T09:31:27.132Z,103353.47
2023-02-14T09:33:51.216Z,103345.41
2023-02-14T09:36:15.676Z,103344.25
2023-02-14T09:38:37.265Z,103336.44
2023-02-14T09:40:59.328Z,103346.25
2023-02-14T09:43:55.903Z,103342.09
2023-02-14T09:46:20.094Z,103348.81
2023-02-14T09:48:49.796Z,103352.00
2023-02-14T09:51:18.159Z,103348.34
2023-02-14T09:53:51.185Z,103339.47
2023-02-14T09:56:51.724Z,103337.44
2023-02-14T09:59:48.308Z,103339.53
2023-02-14T10:02:48.659Z,103326.03
2023-02-14T10:05:15.740Z,103323.63
2023-02-14T10:08:23.830Z,103318.00
2023-02-14T10:10:58.081Z,103318.66
2023-02-14T10:13:38.216Z,103318.22
2023-02-14T10:16:25.754Z,103317.81
2023-02-14T10:19:05.964Z,103315.44
2023-02-14T10:21:37.660Z,103318.53
2023-02-14T10:24:17.795Z,103310.34
2023-02-14T10:26:41.385Z,103315.63
2023-02-14T10:29:07.524Z,103314.88
2023-02-14T10:31:55.677Z,103320.41
2023-02-14T10:34:50.748Z,103323.53
2023-02-14T10:38:17.339Z,103319.47
2023-02-14T10:40:54.390Z,103321.75
2023-02-14T10:43:35.858Z,103324.81
2023-02-14T10:46:25.850Z,103311.59
2023-02-14T10:49:13.186Z,103306.72
2023-02-14T10:51:48.550Z,103315.56
2023-02-14T10:54:24.578Z,103306.22
2023-02-14T10:56:58.418Z,103302.66
2023-02-14T10:59:34.967Z,103297.72
2023-02-14T11:02:00.588Z,103303.78
2023-02-14T11:04:25.235Z,103297.72
2023-02-14T11:06:49.232Z,103294.69
2023-02-14T11:09:12.271Z,103293.31
2023-02-14T11:11:43.364Z,103295.25
2023-02-14T11:14:31.500Z,103277.88
2023-02-14T11:16:55.256Z,103285.03
2023-02-14T11:19:37.207Z,103275.34
2023-02-14T11:22:02.706Z,103278.94
2023-02-14T11:24:33.146Z,103276.97
2023-02-14T11:27:14.376Z,103268.97
2023-02-14T11:29:44.897Z,103269.50
2023-02-14T11:32:23.354Z,103264.75
2023-02-14T11:34:53.868Z,103265.03
2023-02-14T11:37:30.410Z,103266.41
2023-02-14T11:39:56.954Z,103252.56
2023-02-14T11:42:37.014Z,103250.34
2023-02-14T11:44:59.545Z,103250.03
2023-02-14T11:47:31.209Z,103248.34
2023-02-14T11:50:12.674Z,103248.03
2023-02-14T11:52:51.747Z,103245.50
2023-02-14T11:55:29.993Z,103228.59
2023-02-14T11:57:52.164Z,103225.25
2023-02-14T12:00:21.487Z,103231.03
2023-02-14T12:02:51.453Z,103222.69
2023-02-14T12:05:49.546Z,103216.03
2023-02-14T12:08:12.199Z,103218.47
2023-02-14T12:10:39.629Z,103212.38
2023-02-14T12:13:26.210Z,103205.69
2023-02-14T12:15:47.815Z,103206.78
2023-02-14T12:18:30.963Z,103201.47
2023-02-14T12:21:12.657Z,103191.78
2023-02-14T12:24:04.396Z,103189.81
2023-02-14T12:26:47.790Z,103181.16
2023-02-14T12:29:12.680Z,103181.63
2023-02-14T12:31:34.329Z,103175.22
2023-02-14T12:33:56.515Z,103174.06
2023-02-14T12:36:57.359Z,103172.88
2023-02-14T12:39:56.069Z,103165.13
2023-02-14T12:43:03.785Z,103164.25
2023-02-14T12:45:56.276Z,103162.81
2023-02-14T12:49:11.030Z,103155.59
2023-02-14T12:51:43.356Z,103141.44
2023-02-14T12:54:46.930Z,103150.50
2023-02-14T12:57:57.664Z,103149.84
2023-02-14T13:00:40.150Z,103145.03
2023-02-14T13:03:54.628Z,103139.50
2023-02-14T13:06:33.488Z,103130.09
2023-02-14T13:09:10.337Z,103131.19
2023-02-14T13:11:59.279Z,103131.44
2023-02-14T13:14:45.302Z,103122.31
2023-02-14T13:17:29.639Z,103130.31
2023-02-14T13:20:06.698Z,103118.63
2023-02-14T13:22:33.926Z,103120.81
2023-02-14T13:25:05.624Z,103119.41
2023-02-14T13:27:37.855Z,103117.66
2023-02-14T13:30:06.819Z,103106.22
2023-02-14T13:32:40.536Z,103108.91
2023-02-14T13:35:03.850Z,103106.66
2023-02-14T13:37:28.272Z,103097.47
2023-02-14T13:40:03.158Z,103090.50
2023-02-14T13:42:46.699Z,103093.78
2023-02-14T13:45:40.148Z,103096.84
2023-02-14T13:48:15.102Z,103090.50
2023-02-14T13:50:51.703Z,103089.88
2023-02-14T13:53:30.588Z,103081.50
2023-02-14T13:55:55.913Z,103082.25
2023-02-14T13:58:21.671Z,103080.50
2023-02-14T14:00:49.123Z,103079.06
2023-02-14T14:03:34.178Z,103071.09
2023-02-14T14:06:11.767Z,103070.03
2023-02-14T14:08:43.625Z,103065.63
2023-02-14T14:11:23.454Z,103072.28
2023-02-14T14:13:56.300Z,103070.84
2023-02-14T14:16:24.345Z,103066.66
2023-02-14T14:18:46.264Z,103060.81
2023-02-14T14:21:23.183Z,103058.56
2023-02-14T14:23:45.002Z,103060.53
2023-02-14T14:26:39.559Z,103059.09
2023-02-14T14:29:01.521Z,103055.25
2023-02-14T14:31:23.656Z,103051.34
2023-02-14T14:33:45.447Z,103050.53
2023-02-14T14:36:21.493Z,103050.25
2023-02-14T14:38:50.761Z,103044.09
2023-02-14T14:41:12.654Z,103039.69
2023-02-14T14:43:38.472Z,103043.47
2023-02-14T14:46:03.340Z,103041.22
2023-02-14T14:48:51.406Z,103036.50
2023-02-14T14:51:33.500Z,103046.78
2023-02-14T14:54:05.988Z,103043.81
2023-02-14T14:56:33.667Z,103037.72
2023-02-14T14:58:55.319Z,103034.44
2023-02-14T15:01:38.637Z,103037.00
2023-02-14T15:04:24.929Z,103027.94
2023-02-14T15:06:48.701Z,103026.06
2023-02-14T15:09:23.824Z,103026.69
2023-02-14T15:12:06.142Z,103026.16
2023-02-14T15:14:33.640Z,103029.53
2023-02-14T15:17:01.861Z,103022.94
2023-02-14T15:19:41.137Z,103034.63
2023-02-14T15:22:29.520Z,103022.50
2023-02-14T15:24:51.928Z,103031.41
2023-02-14T15:27:21.845Z,103031.75
2023-02-14T15:29:58.703Z,103035.41
2023-02-14T15:32:21.564Z,103039.91
2023-02-14T15:34:43.845Z,103029.41
2023-02-14T15:37:07.061Z,103029.19
2023-02-14T15:39:37.816Z,103031.44
2023-02-14T15:41:59.976Z,103039.53
2023-02-14T15:44:25.215Z,103035.69
2023-02-14T15:46:48.057Z,103028.59
2023-02-14T15:49:14.970Z,103023.94
2023-02-14T15:51:39.038Z,103021.47
2023-02-14T15:54:05.574Z,103019.88
2023-02-14T15:56:36.890Z,103009.69
2023-02-14T15:59:01.174Z,103012.22
2023-02-14T16:01:23.079Z,103010.66
2023-02-14T16:03:53.650Z,103016.78
2023-02-14T16:06:37.057Z,103014.91
2023-02-14T16:08:59.302Z,103003.66
2023-02-14T16:11:37.463Z,103012.84
2023-02-14T16:14:19.332Z,103012.69
2023-02-14T16:17:12.078Z,103017.44
2023-02-14T16:19:45.802Z,103014.53
2023-02-14T16:22:10.987Z,103015.16
2023-02-14T16:24:33.968Z,103021.06
2023-02-14T16:26:55.820Z,103016.69
2023-02-14T16:29:25.273Z,103014.78
2023-02-14T16:34:37.041Z,103020.22
2023-02-14T16:37:05.430Z,103021.34
2023-02-14T16:39:28.132Z,103024.72
2023-02-14T16:41:55.412Z,103019.22
2023-02-14T16:44:19.692Z,103020.09
2023-02-14T16:46:43.114Z,103026.22
2023-02-14T16:49:04.876Z,103021.06
2023-02-14T16:51:33.334Z,103020.53
2023-02-14T16:54:00.387Z,103015.59
2023-02-14T16:56:36.718Z,103007.13
2023-02-14T16:58:58.611Z,103009.97
2023-02-14T17:01:20.346Z,103020.25
2023-02-14T17:03:42.811Z,103012.28
2023-02-14T17:06:06.236Z,103018.41
2023-02-14T17:08:28.535Z,103015.13
2023-02-14T17:10:51.230Z,103015.19
2023-02-14T17:13:13.346Z,103018.53
2023-02-14T17:15:35.707Z,103025.22
2023-02-14T17:18:05.205Z,103026.88
2023-02-14T17:20:29.309Z,103023.91
2023-02-14T17:22:50.983Z,103029.72
2023-02-14T17:25:12.589Z,103034.69
2023-02-14T17:27:35.168Z,103027.53
2023-02-14T17:29:56.798Z,103032.22
2023-02-14T17:32:18.737Z,103035.00
2023-02-14T17:34:40.998Z,103030.34
2023-02-14T17:37:02.958Z,103028.16
2023-02-14T17:39:24.779Z,103036.94
2023-02-14T17:41:46.664Z,103039.13
2023-02-14T17:44:08.387Z,103042.19
2023-02-14T17:46:31.810Z,103041.63
2023-02-14T17:48:53.699Z,103041.91
2023-02-14T17:51:20.248Z,103040.25
2023-02-14T17:53:42.661Z,103044.38
2023-02-14T17:56:21.034Z,103050.16
2023-02-14T17:58:42.721Z,103043.78
2023-02-14T18:01:12.309Z,103044.59
2023-02-14T18:03:34.513Z,103042.66
2023-02-14T18:06:01.154Z,103042.63
2023-02-14T18:08:22.857Z,103046.75
2023-02-14T18:10:45.873Z,103038.47
2023-02-14T18:13:07.547Z,103044.78
2023-02-14T18:15:29.548Z,103038.47
2023-02-14T18:17:51.224Z,103034.03
2023-02-14T18:20:13.695Z,103026.56
2023-02-14T18:22:35.351Z,103035.63
2023-02-14T18:24:58.721Z,103028.47
2023-02-14T18:27:20.562Z,103025.69
2023-02-14T18:29:42.346Z,103023.19
2023-02-14T18:32:04.796Z,103024.81
2023-02-14T18:34:26.851Z,103021.22
2023-02-14T18:36:48.624Z,103022.28
2023-02-14T18:39:10.640Z,103025.00
2023-02-14T18:41:33.335Z,103024.44
2023-02-14T18:43:55.427Z,103019.41
2023-02-14T18:46:23.937Z,103018.78
2023-02-14T18:48:46.135Z,103026.72
2023-02-14T18:51:09.389Z,103017.56
2023-02-14T18:53:31.333Z,103018.59
2023-02-14T18:55:52.936Z,103016.59
2023-02-14T18:58:14.643Z,103011.31
2023-02-14T19:00:36.378Z,103013.19
2023-02-14T19:02:59.140Z,103000.25
2023-02-14T19:05:20.761Z,103004.59
2023-02-14T19:07:42.362Z,102999.63
2023-02-14T19:10:06.074Z,102991.66
2023-02-14T19:12:32.080Z,102990.84
2023-02-14T19:14:54.499Z,102984.53
2023-02-14T19:17:16.918Z,102981.22
2023-02-14T19:19:39.714Z,102987.22
2023-02-14T19:22:01.660Z,102982.75
2023-02-14T19:24:25.533Z,102992.31
2023-02-14T19:26:47.393Z,102984.28
2023-02-14T19:29:16.297Z,102985.03
2023-02-14T19:31:46.021Z,102973.78
2023-02-14T19:34:14.979Z,102972.38
2023-02-14T19:36:37.543Z,102975.66
2023-02-14T19:38:59.281Z,102980.00
2023-02-14T19:41:30.144Z,102972.53
2023-02-14T19:43:52.639Z,102970.56
2023-02-14T19:46:16.636Z,102975.41
2023-02-14T19:48:38.850Z,102972.31
2023-02-14T19:51:00.892Z,102973.53
2023-02-14T19:53:22.733Z,102972.59
2023-02-14T19:55:45.869Z,102966.97
2023-02-14T19:58:07.569Z,102969.66
2023-02-14T20:00:29.365Z,102969.31
2023-02-14T20:02:52.033Z,102973.41
2023-02-14T20:05:18.607Z,102966.53
2023-02-14T20:07:40.215Z,102959.66
2023-02-14T20:10:01.856Z,102955.25
2023-02-14T20:12:23.457Z,102959.06
2023-02-14T20:14:51.304Z,102963.72
2023-02-14T20:17:14.923Z,102960.34
2023-02-14T20:19:37.933Z,102956.94
2023-02-14T20:22:00.794Z,102962.28
2023-02-14T20:24:25.995Z,102947.38
2023-02-14T20:26:49.274Z,102947.06
2023-02-14T20:29:11.550Z,102951.13
2023-02-14T20:31:34.372Z,102950.53
2023-02-14T20:33:57.317Z,102952.69
2023-02-14T20:36:20.329Z,102947.72
2023-02-14T20:38:42.019Z,102945.22
2023-02-14T20:41:10.216Z,102943.59
2023-02-14T20:43:32.052Z,102948.47
2023-02-14T20:46:01.179Z,102951.69
2023-02-14T20:48:22.957Z,102950.75
2023-02-14T20:50:44.573Z,102947.94
2023-02-14T20:53:06.147Z,102942.41
2023-02-14T20:55:28.467Z,102943.38
2023-02-14T20:57:50.031Z,102937.28
2023-02-14T21:00:12.118Z,102938.03
2023-02-14T21:02:33.739Z,102931.63
2023-02-14T21:04:55.599Z,102937.00
2023-02-14T21:07:17.554Z,102942.38
2023-02-14T21:09:39.236Z,102936.00
2023-02-14T21:12:00.807Z,102924.13
2023-02-14T21:14:22.489Z,102924.91
2023-02-14T21:16:44.240Z,102922.91
2023-02-14T21:19:05.959Z,102916.50
2023-02-14T21:21:36.643Z,102911.28
2023-02-14T21:24:00.853Z,102922.13
2023-02-14T21:26:22.465Z,102920.94
2023-02-14T21:28:44.470Z,102922.28
2023-02-14T21:31:09.819Z,102916.47
2023-02-14T21:33:32.884Z,102917.78
2023-02-14T21:35:55.208Z,102912.81
2023-02-14T21:38:16.846Z,102909.16
2023-02-14T21:40:38.460Z,102910.97
2023-02-14T21:43:00.263Z,102916.31
2023-02-14T21:45:40.497Z,102916.47
2023-02-14T21:48:20.665Z,102913.06
2023-02-14T21:50:42.437Z,102914.59
2023-02-14T21:53:07.388Z,102906.91
2023-02-14T21:55:29.062Z,102909.84
2023-02-14T21:57:50.733Z,102916.16
2023-02-14T22:00:12.749Z,102904.16
2023-02-14T22:02:34.572Z,102903.09
2023-02-14T22:04:56.252Z,102899.31
2023-02-14T22:07:17.915Z,102892.16
2023-02-14T22:09:39.476Z,102894.06
2023-02-14T22:12:01.112Z,102904.16
2023-02-14T22:14:22.843Z,102895.16
2023-02-14T22:16:44.535Z,102898.13
2023-02-14T22:19:08.170Z,102902.16
2023-02-14T22:21:33.342Z,102892.78
2023-02-14T22:23:55.393Z,102896.84
2023-02-14T22:26:30.608Z,102894.09
2023-02-14T22:29:01.427Z,102894.59
2023-02-14T22:31:25.062Z,102898.63
2023-02-14T22:33:48.752Z,102896.41
2023-02-14T22:36:11.326Z,102893.56
2023-02-14T22:38:34.840Z,102891.56
2023-02-14T22:40:56.806Z,102890.13
2023-02-14T22:43:18.979Z,102895.81
2023-02-14T22:45:40.677Z,102895.72
2023-02-14T22:48:02.384Z,102901.88
2023-02-14T22:50:23.938Z,102900.69
2023-02-14T22:52:45.597Z,102901.19
2023-02-14T22:55:07.461Z,102889.06
2023-02-14T22:57:31.811Z,102893.13
2023-02-14T22:59:53.478Z,102889.22
2023-02-14T23:02:15.077Z,102894.31
2023-02-14T23:04:37.090Z,102884.94
2023-02-14T23:06:58.679Z,102881.03
2023-02-14T23:09:21.047Z,102890.28
2023-02-14T23:11:44.877Z,102877.94
2023-02-14T23:14:25.676Z,102875.69
2023-02-14T23:17:07.209Z,102882.69
2023-02-14T23:19:54.652Z,102882.56
2023-02-14T23:22:23.678Z,102879.72
2023-02-14T23:24:47.402Z,102887.78
2023-02-14T23:27:09.703Z,102884.94
2023-02-14T23:29:31.724Z,102890.03
2023-02-14T23:31:53.551Z,102891.31
2023-02-14T23:34:15.262Z,102890.38
2023-02-14T23:36:36.900Z,102892.50
2023-02-14T23:38:58.526Z,102892.50
2023-02-14T23:41:38.763Z,102890.84
2023-02-14T23:44:00.443Z,102885.63
2023-02-14T23:46:22.796Z,102877.91
2023-02-14T23:48:44.381Z,102880.88
2023-02-14T23:51:06.217Z,102879.44
2023-02-14T23:53:27.796Z,102880.53
2023-02-14T23:55:49.352Z,102878.88
2023-02-14T23:58:10.962Z,102873.44
